Legend :    VFR   Marginal VFR   IFR   Intensive IFR   Very Intensive IFR
Visi :
Ceiling :
>= 8 km
>= 3000ft
5 to 8 km
1000 to 3000 ft
1500m to 5 km
500 to 1000 ft
800 to 1500m
200 to 500 ft
< 800m
< 200 ft
Symbols :   Thunderstorms  Fog  Heavy snow  Heavy precipitations  Wind > 20 kt
SIGMETs :     Misc.  Thunderstorms  Icing  Turbulence  Mountain Waves  Volcanic Ashes







- Airport Elevation : 876 ft
- IATA code : MBX


LJMB - Maribor

CURRENT METAR :
  • 242230Z AUTO 00000KT 9999 NCD 13/09 Q1014

EXPIRED METARs :
  • 242200Z AUTO 00000KT 9999 NCD 14/09 Q1014
  • 242130Z AUTO 27002KT 9999 NSC 14/09 Q1014
  • 242100Z AUTO 33002KT 9999 NSC 14/09 Q1014
  • 242030Z AUTO VRB03KT 9999 NCD 15/08 Q1014
  • 242000Z 34003KT CAVOK 15/09 Q1014

TAF TAF LJMB
Valid from the 24 at 21:00 until the 25 at 21:00 UTC


242000Z 2421/2521 34003KT CAVOK
BECMG 2509/2512 18005KT FEW045
PROB30
TEMPO 2510/2518 VRB10KT -SHRA SCT045TCU
BECMG 2519/2521 34003KT CAVOK
No reported NOTAMs for that airfield.


LOGIN :  

Disclaimer |     EN      FR      IT 



MET'MAP, your aeronautical weather chart ! - Copyright ORBIFLY December 2007 - Disclaimer


ORBIFLY MET'MAP TEAM :

Programming & Development : Alexandra Zaïnal
Concept & Development : Baudouin d'Aumeries
Co-Development & Prog : Marc-Olivier Méhu
Technical & hardware support : Manuel Goepfert

Contact : metmap@orbifly.com




SOURCES & CREDITS :

   NOAA